Miranda, Argentina
Current Conditions -  °F | °C
As of 8:00 AM on Sunday 23 Nov 2014 (Local Time) from SCSE Reporting Station
Drizzle Drizzle  
Wind Chill: 54°   Ceiling: 1200
Heat Index: 54°   Visibility: 4mi
Dew Point: 52°   Wind: 3mph
Humidity: 94%   Direction: 320°NW
Pressure: 29.97"   Gusts: NA
Location:  29.32°S, 67.64°W
Report Text: SCSE 231100Z 32003KT 7000 -DZ OVC012 12/11 Q1015
Loading
Personal Weather Stations






























Interactive Weather Map New forecast layout! Learn more

10-Day Weather Forecast

Advertisements
Track Severe Weather on mobile